createdAt,value
2019-02-22T00:00:42.502Z,0
2019-02-22T00:01:51.426Z,0
2019-02-22T00:03:00.668Z,0
2019-02-22T00:04:09.599Z,0
2019-02-22T00:05:19.047Z,0
2019-02-22T00:06:28.490Z,0
2019-02-22T00:07:37.429Z,0
2019-02-22T00:08:46.110Z,0
2019-02-22T00:09:56.789Z,0
2019-02-22T00:11:05.988Z,0
2019-02-22T00:12:15.182Z,0
2019-02-22T00:13:24.353Z,0
2019-02-22T00:14:33.541Z,0
2019-02-22T00:15:43.340Z,0
2019-02-22T00:16:52.507Z,0
2019-02-22T00:18:01.692Z,0
2019-02-22T00:19:11.126Z,0
2019-02-22T00:20:20.572Z,0
2019-02-22T00:21:30.000Z,0
2019-02-22T00:22:39.203Z,0
2019-02-22T00:23:48.397Z,0
2019-02-22T00:24:57.881Z,0
2019-02-22T00:26:07.925Z,0
2019-02-22T00:27:18.260Z,0
2019-02-22T00:28:27.473Z,0
2019-02-22T00:29:36.656Z,0
2019-02-22T00:30:46.098Z,0
2019-02-22T00:31:55.017Z,0
2019-02-22T00:33:04.444Z,0
2019-02-22T00:34:14.441Z,0
2019-02-22T00:35:24.271Z,0
2019-02-22T00:36:34.147Z,0
2019-02-22T00:37:43.850Z,0
2019-02-22T00:38:53.289Z,0
2019-02-22T00:40:02.981Z,0
2019-02-22T00:41:12.411Z,0
2019-02-22T00:42:21.850Z,0
2019-02-22T00:43:31.284Z,0
2019-02-22T00:44:39.986Z,0
2019-02-22T00:45:49.191Z,0
2019-02-22T00:46:59.119Z,0
2019-02-22T00:48:08.557Z,0
2019-02-22T00:49:17.735Z,0
2019-02-22T00:50:26.927Z,0
2019-02-22T00:51:35.859Z,0
2019-02-22T00:52:45.042Z,0
2019-02-22T00:53:54.493Z,0
2019-02-22T00:55:03.188Z,0
2019-02-22T00:56:12.641Z,0
2019-02-22T00:57:21.665Z,0
2019-02-22T00:58:31.091Z,0
2019-02-22T00:59:40.024Z,0
2019-02-22T01:00:49.462Z,0
2019-02-22T01:01:58.907Z,0
2019-02-22T01:03:08.340Z,0
2019-02-22T01:04:17.533Z,0
2019-02-22T01:05:27.216Z,0
2019-02-22T01:06:35.907Z,0
2019-02-22T01:07:45.081Z,0
2019-02-22T01:08:54.780Z,0
2019-02-22T01:10:04.239Z,0
2019-02-22T01:11:13.445Z,0
2019-02-22T01:12:23.144Z,0
2019-02-22T01:13:32.129Z,0
2019-02-22T01:14:41.087Z,0
2019-02-22T01:15:50.527Z,0
2019-02-22T01:17:02.161Z,0
2019-02-22T01:18:11.906Z,0
2019-02-22T01:19:21.147Z,0
2019-02-22T01:20:31.096Z,0
2019-02-22T01:21:40.569Z,0
2019-02-22T01:22:50.256Z,0
2019-02-22T01:23:59.437Z,0
2019-02-22T01:25:08.938Z,0
2019-02-22T01:26:18.883Z,0
2019-02-22T01:27:27.807Z,0
2019-02-22T01:28:37.240Z,0
2019-02-22T01:29:46.931Z,0
2019-02-22T01:30:56.403Z,0
2019-02-22T01:32:05.858Z,0
2019-02-22T01:33:15.083Z,0
2019-02-22T01:34:24.287Z,0
2019-02-22T01:35:33.717Z,0
2019-02-22T01:36:43.163Z,0
2019-02-22T01:37:52.592Z,0
2019-02-22T01:39:02.042Z,0
2019-02-22T01:40:12.120Z,0
2019-02-22T01:41:21.341Z,0
2019-02-22T01:42:31.043Z,0
2019-02-22T01:43:40.494Z,0
2019-02-22T01:44:50.192Z,0
2019-02-22T01:45:59.881Z,0
2019-02-22T01:47:09.566Z,0
2019-02-22T01:48:19.516Z,0
2019-02-22T01:49:28.698Z,0
2019-02-22T01:50:37.989Z,0
2019-02-22T01:51:47.672Z,0
2019-02-22T01:52:57.366Z,0
2019-02-22T01:54:07.072Z,0
2019-02-22T01:55:16.510Z,0
2019-02-22T01:56:25.971Z,0
2019-02-22T01:57:35.947Z,0
2019-02-22T01:58:55.575Z,0
2019-02-22T02:00:05.377Z,0
2019-02-22T02:01:14.820Z,0
2019-02-22T02:02:24.280Z,0
2019-02-22T02:03:33.744Z,0
2019-02-22T02:04:43.196Z,0
2019-02-22T02:05:53.153Z,0
2019-02-22T02:07:02.869Z,0
2019-02-22T02:08:12.571Z,0
2019-02-22T02:09:21.759Z,0
2019-02-22T02:10:31.184Z,0
2019-02-22T02:11:40.128Z,0
2019-02-22T02:12:49.544Z,0
2019-02-22T02:13:59.485Z,0
2019-02-22T02:15:08.944Z,0
2019-02-22T02:16:18.122Z,0
2019-02-22T02:17:27.578Z,0
2019-02-22T02:18:37.284Z,0
2019-02-22T02:19:46.541Z,0
2019-02-22T02:20:56.676Z,0
2019-02-22T02:22:06.151Z,0
2019-02-22T02:23:15.597Z,0
2019-02-22T02:24:24.294Z,0
2019-02-22T02:25:33.462Z,0
2019-02-22T02:26:42.908Z,0
2019-02-22T02:27:52.386Z,0
2019-02-22T02:29:01.863Z,0
2019-02-22T02:30:11.333Z,0
2019-02-22T02:31:21.128Z,0
2019-02-22T02:32:30.559Z,0
2019-02-22T02:33:39.743Z,0
2019-02-22T02:34:49.175Z,0
2019-02-22T02:35:58.866Z,0
2019-02-22T02:37:08.826Z,0
2019-02-22T02:38:18.561Z,0
2019-02-22T02:39:27.747Z,0
2019-02-22T02:40:37.427Z,0
2019-02-22T02:41:47.096Z,0
2019-02-22T02:42:56.284Z,0
2019-02-22T02:44:05.535Z,0
2019-02-22T02:45:15.217Z,0
2019-02-22T02:46:24.438Z,0
2019-02-22T02:47:34.464Z,0
2019-02-22T02:48:44.138Z,0
2019-02-22T02:49:53.584Z,0
2019-02-22T02:51:03.524Z,0
2019-02-22T02:52:13.216Z,0
2019-02-22T02:53:23.178Z,0
2019-02-22T02:54:32.685Z,0
2019-02-22T02:55:42.149Z,0
2019-02-22T02:56:53.337Z,0
2019-02-22T02:58:03.053Z,0
2019-02-22T02:59:13.078Z,0
2019-02-22T03:00:22.014Z,0
2019-02-22T03:01:31.454Z,0
2019-02-22T03:02:41.168Z,0
2019-02-22T03:03:50.841Z,0
2019-02-22T03:05:00.534Z,0
2019-02-22T03:06:09.980Z,0
2019-02-22T03:07:19.460Z,0
2019-02-22T03:08:29.483Z,0
2019-02-22T03:09:39.166Z,0
2019-02-22T03:10:48.353Z,0
2019-02-22T03:11:58.173Z,0
2019-02-22T03:13:07.878Z,0
2019-02-22T03:14:17.321Z,0
2019-02-22T03:15:27.261Z,0
2019-02-22T03:16:37.200Z,0
2019-02-22T03:17:46.642Z,0
2019-02-22T03:18:56.078Z,0
2019-02-22T03:20:05.524Z,0
2019-02-22T03:21:15.483Z,0
2019-02-22T03:22:24.660Z,0
2019-02-22T03:23:34.844Z,0
2019-02-22T03:24:44.815Z,0
2019-02-22T03:25:54.490Z,0
2019-02-22T03:27:03.733Z,0
2019-02-22T03:28:12.925Z,0
2019-02-22T03:29:21.861Z,0
2019-02-22T03:30:31.585Z,0
2019-02-22T03:31:41.383Z,0
2019-02-22T03:32:51.323Z,0
2019-02-22T03:34:01.331Z,0
2019-02-22T03:35:11.074Z,0
2019-02-22T03:36:20.054Z,0
2019-02-22T03:37:29.240Z,0
2019-02-22T03:38:39.199Z,0
2019-02-22T03:39:48.889Z,0
2019-02-22T03:40:58.821Z,0
2019-02-22T03:42:08.534Z,0
2019-02-22T03:43:17.495Z,0
2019-02-22T03:44:26.941Z,0
2019-02-22T03:45:36.155Z,0
2019-02-22T03:46:45.345Z,0
2019-02-22T03:47:54.065Z,0
2019-02-22T03:49:03.814Z,0
2019-02-22T03:50:13.239Z,0
2019-02-22T03:51:22.708Z,0
2019-02-22T03:52:32.155Z,0
2019-02-22T03:53:41.860Z,0
2019-02-22T03:54:51.051Z,0
2019-02-22T03:56:00.262Z,0
2019-02-22T03:57:09.695Z,0
2019-02-22T03:58:18.678Z,0
2019-02-22T03:59:28.640Z,0
2019-02-22T04:00:37.677Z,0
2019-02-22T04:01:46.881Z,0
2019-02-22T04:02:56.310Z,0
2019-02-22T04:04:05.497Z,0
2019-02-22T04:05:14.980Z,0
2019-02-22T04:06:24.675Z,0
2019-02-22T04:07:34.139Z,0
2019-02-22T04:08:43.604Z,0
2019-02-22T04:09:53.323Z,0
2019-02-22T04:11:03.307Z,0
2019-02-22T04:12:13.264Z,0
2019-02-22T04:13:22.722Z,0
2019-02-22T04:14:32.662Z,0
2019-02-22T04:15:42.756Z,0
2019-02-22T04:16:52.207Z,0
2019-02-22T04:18:01.645Z,0
2019-02-22T04:19:11.409Z,0
2019-02-22T04:20:20.878Z,0
2019-02-22T04:21:30.079Z,0
2019-02-22T04:22:39.526Z,0
2019-02-22T04:23:51.652Z,0
2019-02-22T04:25:01.115Z,0
2019-02-22T04:26:11.052Z,0
2019-02-22T04:27:20.499Z,0
2019-02-22T04:28:29.951Z,0
2019-02-22T04:29:39.650Z,0
2019-02-22T04:30:49.089Z,0
2019-02-22T04:31:58.783Z,0
2019-02-22T04:33:08.559Z,0
2019-02-22T04:34:17.766Z,0
2019-02-22T04:35:26.946Z,0
2019-02-22T04:36:36.384Z,0
2019-02-22T04:37:45.847Z,0
2019-02-22T04:38:55.301Z,0
2019-02-22T04:40:04.475Z,0
2019-02-22T04:41:14.188Z,0
2019-02-22T04:42:23.386Z,0
2019-02-22T04:43:32.583Z,0
2019-02-22T04:44:42.040Z,0
2019-02-22T04:45:51.228Z,0
2019-02-22T04:47:00.430Z,0
2019-02-22T04:48:09.361Z,0
2019-02-22T04:49:18.552Z,0
2019-02-22T04:50:28.257Z,0
2019-02-22T04:51:38.185Z,0
2019-02-22T04:52:47.709Z,0
2019-02-22T04:53:56.892Z,0
2019-02-22T04:55:06.329Z,0
2019-02-22T04:56:15.828Z,0
2019-02-22T04:57:25.560Z,0
2019-02-22T04:58:34.862Z,0
2019-02-22T04:59:44.783Z,0
2019-02-22T05:00:53.971Z,0
2019-02-22T05:02:03.938Z,0
2019-02-22T05:03:12.628Z,0
2019-02-22T05:04:22.097Z,0
2019-02-22T05:05:31.275Z,0
2019-02-22T05:06:40.958Z,0
2019-02-22T05:07:50.646Z,0
2019-02-22T05:09:00.117Z,0
2019-02-22T05:10:10.061Z,0
2019-02-22T05:11:19.950Z,0
2019-02-22T05:12:29.170Z,0
2019-02-22T05:13:39.122Z,0
2019-02-22T05:14:48.603Z,0
2019-02-22T05:15:58.166Z,0
2019-02-22T05:17:07.865Z,0
2019-02-22T05:18:17.567Z,0
2019-02-22T05:19:27.297Z,0
2019-02-22T05:20:36.267Z,0
2019-02-22T05:21:45.718Z,0
2019-02-22T05:23:09.992Z,0
2019-02-22T05:24:19.427Z,0
2019-02-22T05:25:29.100Z,0
2019-02-22T05:26:38.544Z,0
2019-02-22T05:27:48.227Z,0
2019-02-22T05:28:58.148Z,0
2019-02-22T05:30:08.077Z,0
2019-02-22T05:31:17.773Z,0
2019-02-22T05:32:27.713Z,0
2019-02-22T05:33:36.755Z,0
2019-02-22T05:34:45.961Z,0
2019-02-22T05:35:55.151Z,0
2019-02-22T05:37:04.088Z,0
2019-02-22T05:38:13.307Z,0
2019-02-22T05:39:26.512Z,0
2019-02-22T05:40:35.959Z,0
2019-02-22T05:41:45.404Z,0
2019-02-22T05:42:54.589Z,0
2019-02-22T05:44:04.078Z,0
2019-02-22T05:45:13.775Z,0
2019-02-22T05:46:22.947Z,0
2019-02-22T05:47:32.872Z,0
2019-02-22T05:48:46.002Z,0
2019-02-22T05:49:55.454Z,0
2019-02-22T05:51:04.895Z,0
2019-02-22T05:52:14.126Z,0
2019-02-22T05:53:23.564Z,0
2019-02-22T05:54:33.003Z,0
2019-02-22T05:55:44.206Z,0
2019-02-22T05:56:57.489Z,0
2019-02-22T05:58:07.209Z,0
2019-02-22T05:59:16.894Z,0
2019-02-22T06:00:26.612Z,0
2019-02-22T06:01:36.428Z,0
2019-02-22T06:02:46.131Z,0
2019-02-22T06:03:55.822Z,0
2019-02-22T06:05:05.520Z,0
2019-02-22T06:06:14.974Z,0
2019-02-22T06:07:24.714Z,0
2019-02-22T06:08:33.917Z,0
2019-02-22T06:09:43.846Z,0
2019-02-22T06:10:53.267Z,0
2019-02-22T06:12:02.927Z,0
2019-02-22T06:13:12.865Z,0
2019-02-22T06:14:21.802Z,0
2019-02-22T06:15:33.583Z,0
2019-02-22T06:16:42.533Z,0
2019-02-22T06:17:52.613Z,0
2019-02-22T06:19:01.796Z,0
2019-02-22T06:20:11.024Z,0
2019-02-22T06:21:22.390Z,0
2019-02-22T06:22:37.062Z,0
2019-02-22T06:23:46.512Z,0
2019-02-22T06:24:56.405Z,0
2019-02-22T06:26:05.882Z,0
2019-02-22T06:27:15.349Z,0
2019-02-22T06:28:25.284Z,0
2019-02-22T06:29:34.747Z,0
2019-02-22T06:30:44.446Z,0
2019-02-22T06:31:54.140Z,0
2019-02-22T06:33:03.574Z,0
2019-02-22T06:34:12.518Z,0
2019-02-22T06:35:21.690Z,0
2019-02-22T06:36:31.179Z,0
2019-02-22T06:37:40.628Z,0
2019-02-22T06:38:51.286Z,0
2019-02-22T06:40:00.996Z,0
2019-02-22T06:41:11.021Z,0
2019-02-22T06:42:20.202Z,0
2019-02-22T06:43:29.381Z,0
2019-02-22T06:44:38.590Z,0
2019-02-22T06:45:48.259Z,0
2019-02-22T06:46:57.445Z,0
2019-02-22T06:48:06.874Z,0
2019-02-22T06:49:16.338Z,0
2019-02-22T06:50:36.342Z,0
2019-02-22T06:51:46.032Z,0
2019-02-22T06:52:55.213Z,0
2019-02-22T06:54:04.147Z,0
2019-02-22T06:55:13.339Z,0
2019-02-22T06:56:24.242Z,0
2019-02-22T06:57:33.806Z,0
2019-02-22T06:58:43.004Z,0
2019-02-22T06:59:52.435Z,0
2019-02-22T07:01:01.617Z,0
2019-02-22T07:02:10.301Z,0
2019-02-22T07:03:19.733Z,0
2019-02-22T07:04:29.198Z,0
2019-02-22T07:05:39.184Z,0
2019-02-22T07:06:48.124Z,0
2019-02-22T07:07:59.323Z,0
2019-02-22T07:09:08.773Z,0
2019-02-22T07:10:18.221Z,0
2019-02-22T07:11:27.566Z,0
2019-02-22T07:12:36.996Z,0
2019-02-22T07:13:46.678Z,0
2019-02-22T07:14:56.691Z,0
2019-02-22T07:16:06.142Z,0
2019-02-22T07:17:15.579Z,0
2019-02-22T07:18:25.020Z,0
2019-02-22T07:19:34.207Z,0
2019-02-22T07:20:43.498Z,0
2019-02-22T07:21:59.619Z,0
2019-02-22T07:23:09.054Z,0
2019-02-22T07:24:18.497Z,0
2019-02-22T07:25:28.177Z,0
2019-02-22T07:26:37.850Z,0
2019-02-22T07:27:47.528Z,0
2019-02-22T07:28:56.961Z,0
2019-02-22T07:30:06.398Z,4
2019-02-22T07:31:15.892Z,4
2019-02-22T07:32:25.075Z,4
2019-02-22T07:33:34.660Z,4
2019-02-22T07:34:44.131Z,4
2019-02-22T07:35:53.335Z,4
2019-02-22T07:37:03.273Z,4
2019-02-22T07:38:13.010Z,0
2019-02-22T07:39:34.176Z,4
2019-02-22T07:40:43.361Z,4
2019-02-22T07:41:52.802Z,4
2019-02-22T07:43:12.757Z,4
2019-02-22T07:44:22.691Z,4
2019-02-22T07:49:25.317Z,4
2019-02-22T07:50:34.658Z,4
2019-02-22T07:51:44.334Z,4
2019-02-22T07:52:53.910Z,4
2019-02-22T07:54:03.274Z,4
2019-02-22T07:55:12.610Z,0
2019-02-22T07:56:23.732Z,0
2019-02-22T07:57:33.383Z,0
2019-02-22T07:58:43.026Z,0
2019-02-22T07:59:52.366Z,0
2019-02-22T08:01:01.899Z,0
2019-02-22T08:02:11.695Z,0
2019-02-22T08:03:21.262Z,0
2019-02-22T08:04:31.325Z,4
2019-02-22T08:05:40.839Z,4
2019-02-22T08:06:50.698Z,4
2019-02-22T08:07:59.958Z,4
2019-02-22T08:09:08.984Z,4
2019-02-22T08:10:18.483Z,4
2019-02-22T08:11:28.091Z,4
2019-02-22T08:12:37.978Z,4
2019-02-22T08:13:47.654Z,4
2019-02-22T08:14:57.247Z,4
2019-02-22T08:16:06.686Z,4
2019-02-22T08:17:17.192Z,4
2019-02-22T08:18:26.234Z,4
2019-02-22T08:19:36.317Z,4
2019-02-22T08:20:45.577Z,4
2019-02-22T08:21:54.619Z,4
2019-02-22T08:23:04.655Z,4
2019-02-22T08:24:14.433Z,4
2019-02-22T08:25:23.495Z,4
2019-02-22T08:26:32.589Z,0
2019-02-22T08:27:56.231Z,0
2019-02-22T08:29:05.813Z,0
2019-02-22T08:30:15.197Z,0
2019-02-22T08:31:25.052Z,0
2019-02-22T08:32:34.825Z,0
2019-02-22T08:33:44.353Z,4
2019-02-22T08:34:54.467Z,4
2019-02-22T08:36:04.337Z,4
2019-02-22T08:37:13.154Z,4
2019-02-22T08:38:22.529Z,4
2019-02-22T08:39:31.901Z,4
2019-02-22T08:40:41.242Z,4
2019-02-22T08:41:50.832Z,4
2019-02-22T08:43:00.698Z,4
2019-02-22T08:44:10.466Z,4
2019-02-22T08:45:19.527Z,4
2019-02-22T08:46:28.954Z,4
2019-02-22T08:47:38.083Z,4
2019-02-22T08:48:47.849Z,4
2019-02-22T08:49:57.125Z,4
2019-02-22T08:51:06.881Z,8
2019-02-22T08:52:16.579Z,4
2019-02-22T08:53:26.520Z,4
2019-02-22T08:54:46.488Z,4
2019-02-22T08:55:56.591Z,4
2019-02-22T08:57:05.753Z,4
2019-02-22T08:58:15.533Z,4
2019-02-22T08:59:24.830Z,4
2019-02-22T09:00:34.738Z,4
2019-02-22T09:01:43.968Z,8
2019-02-22T09:02:53.949Z,4
2019-02-22T09:04:03.032Z,4
2019-02-22T09:05:12.365Z,8
2019-02-22T09:06:22.279Z,8
2019-02-22T09:07:32.325Z,4
2019-02-22T09:08:41.893Z,8
2019-02-22T09:09:51.551Z,8
2019-02-22T09:11:07.771Z,8
2019-02-22T09:12:16.866Z,4
2019-02-22T09:13:26.486Z,8
2019-02-22T09:14:36.118Z,4
2019-02-22T09:15:45.890Z,8
2019-02-22T09:16:55.077Z,8
2019-02-22T09:18:04.336Z,8
2019-02-22T09:19:13.386Z,8
2019-02-22T09:20:22.907Z,4
2019-02-22T09:21:32.662Z,4
2019-02-22T09:22:42.247Z,4
2019-02-22T09:23:51.904Z,8
2019-02-22T09:25:01.517Z,8
2019-02-22T09:26:10.727Z,8
2019-02-22T09:27:20.601Z,8
2019-02-22T09:28:30.415Z,8
2019-02-22T09:29:40.109Z,8
2019-02-22T09:30:49.498Z,8
2019-02-22T09:31:59.360Z,8
2019-02-22T09:33:09.266Z,8
2019-02-22T09:34:18.593Z,8
2019-02-22T09:35:27.959Z,8
2019-02-22T09:36:37.440Z,8
2019-02-22T09:37:47.030Z,8
2019-02-22T09:38:56.418Z,4
2019-02-22T09:40:05.997Z,8
2019-02-22T09:41:15.066Z,8
2019-02-22T09:42:24.712Z,4
2019-02-22T09:43:34.143Z,8
2019-02-22T09:44:43.560Z,8
2019-02-22T09:45:53.178Z,8
2019-02-22T09:47:02.527Z,8
2019-02-22T09:48:11.852Z,12
2019-02-22T09:49:21.456Z,8
2019-02-22T09:50:30.544Z,8
2019-02-22T09:51:41.212Z,8
2019-02-22T09:52:50.962Z,8
2019-02-22T09:54:00.257Z,12
2019-02-22T09:55:09.821Z,12
2019-02-22T09:56:19.656Z,8
2019-02-22T09:57:29.363Z,12
2019-02-22T09:58:38.735Z,12
2019-02-22T09:59:48.357Z,12
2019-02-22T10:00:57.883Z,12
2019-02-22T10:02:07.348Z,12
2019-02-22T10:03:17.334Z,16
2019-02-22T10:04:26.393Z,16
2019-02-22T10:05:36.211Z,16
2019-02-22T10:06:45.715Z,12
2019-02-22T10:07:55.491Z,16
2019-02-22T10:09:06.534Z,16
2019-02-22T10:10:15.902Z,16
2019-02-22T10:11:25.087Z,16
2019-02-22T10:12:34.174Z,16
2019-02-22T10:13:44.066Z,16
2019-02-22T10:14:53.714Z,16
2019-02-22T10:16:03.011Z,16
2019-02-22T10:17:12.798Z,16
2019-02-22T10:18:22.095Z,16
2019-02-22T10:19:31.644Z,16
2019-02-22T10:20:41.201Z,16
2019-02-22T10:21:50.583Z,16
2019-02-22T10:22:59.711Z,20
2019-02-22T10:24:08.883Z,16
2019-02-22T10:25:17.975Z,20
2019-02-22T10:26:28.126Z,16
2019-02-22T10:27:37.564Z,12
2019-02-22T10:28:46.847Z,20
2019-02-22T10:29:55.891Z,52
2019-02-22T10:31:04.904Z,44
2019-02-22T10:32:15.942Z,52
2019-02-22T10:33:35.912Z,36
2019-02-22T10:34:46.016Z,28
2019-02-22T10:35:55.840Z,60
2019-02-22T10:37:05.621Z,52
2019-02-22T10:38:15.019Z,28
2019-02-22T10:39:24.583Z,28
2019-02-22T10:40:33.871Z,32
2019-02-22T10:41:43.663Z,32
2019-02-22T10:42:52.754Z,32
2019-02-22T10:44:01.832Z,16
2019-02-22T10:45:11.140Z,20
2019-02-22T10:46:22.198Z,28
2019-02-22T10:47:31.897Z,32
2019-02-22T10:48:41.762Z,60
2019-02-22T10:49:51.088Z,36
2019-02-22T10:51:01.943Z,20
2019-02-22T10:52:11.029Z,20
2019-02-22T10:53:20.190Z,20
2019-02-22T10:54:29.521Z,20
2019-02-22T10:55:39.607Z,20
2019-02-22T10:56:49.222Z,16
2019-02-22T10:57:59.280Z,16
2019-02-22T10:59:08.568Z,12
2019-02-22T11:00:17.883Z,16
2019-02-22T11:01:26.987Z,12
2019-02-22T11:02:38.626Z,12
2019-02-22T11:03:48.114Z,8
2019-02-22T11:04:57.429Z,12
2019-02-22T11:06:07.314Z,8
2019-02-22T11:07:16.348Z,8
2019-02-22T11:08:26.186Z,4
2019-02-22T11:09:36.067Z,8
2019-02-22T11:10:45.841Z,4
2019-02-22T11:11:55.174Z,4
2019-02-22T11:13:05.080Z,4
2019-02-22T11:14:14.909Z,4
2019-02-22T11:15:24.075Z,8
2019-02-22T11:16:33.912Z,4
2019-02-22T11:17:43.750Z,8
2019-02-22T11:18:53.535Z,8
2019-02-22T11:20:03.384Z,8
2019-02-22T11:21:12.440Z,12
2019-02-22T11:22:22.072Z,12
2019-02-22T11:23:31.467Z,12
2019-02-22T11:24:40.951Z,12
2019-02-22T11:25:50.226Z,12
2019-02-22T11:26:59.865Z,12
2019-02-22T11:28:09.240Z,16
2019-02-22T11:29:18.586Z,16
2019-02-22T11:30:28.450Z,16
2019-02-22T11:31:38.391Z,16
2019-02-22T11:32:48.087Z,20
2019-02-22T11:33:57.657Z,20
2019-02-22T11:35:07.032Z,16
2019-02-22T11:36:17.168Z,20
2019-02-22T11:37:26.731Z,16
2019-02-22T11:38:36.077Z,16
2019-02-22T11:39:46.025Z,16
2019-02-22T11:40:55.872Z,16
2019-02-22T11:42:05.489Z,20
2019-02-22T11:43:14.551Z,20
2019-02-22T11:44:23.967Z,24
2019-02-22T11:45:33.350Z,24
2019-02-22T11:46:42.770Z,28
2019-02-22T11:47:51.903Z,32
2019-02-22T11:49:00.776Z,20
2019-02-22T11:50:10.136Z,20
2019-02-22T11:51:19.792Z,16
2019-02-22T11:52:29.874Z,20
2019-02-22T11:53:39.258Z,16
2019-02-22T11:54:48.287Z,16
2019-02-22T11:55:57.883Z,20
2019-02-22T11:57:07.431Z,20
2019-02-22T11:58:17.188Z,16
2019-02-22T11:59:26.519Z,20
2019-02-22T12:00:35.975Z,16
2019-02-22T12:01:45.501Z,16
2019-02-22T12:02:55.102Z,12
2019-02-22T12:04:04.530Z,12
2019-02-22T12:05:14.368Z,12
2019-02-22T12:06:23.355Z,12
2019-02-22T12:07:33.167Z,12
2019-02-22T12:08:42.738Z,12
2019-02-22T12:09:52.732Z,12
2019-02-22T12:11:02.019Z,16
2019-02-22T12:12:11.355Z,12
2019-02-22T12:13:20.431Z,12
2019-02-22T12:14:30.006Z,12
2019-02-22T12:15:39.104Z,12
2019-02-22T12:16:48.679Z,12
2019-02-22T12:17:58.803Z,12
2019-02-22T12:19:08.513Z,12
2019-02-22T12:20:18.048Z,12
2019-02-22T12:21:30.057Z,12
2019-02-22T12:22:38.874Z,12
2019-02-22T12:23:48.400Z,12
2019-02-22T12:24:59.851Z,12
2019-02-22T12:26:09.690Z,16
2019-02-22T12:27:21.497Z,12
2019-02-22T12:28:31.051Z,16
2019-02-22T12:29:40.323Z,16
2019-02-22T12:30:50.168Z,20
2019-02-22T12:32:00.249Z,20
2019-02-22T12:33:09.530Z,16
2019-02-22T12:34:18.604Z,12
2019-02-22T12:35:27.919Z,12
2019-02-22T12:36:37.762Z,24
2019-02-22T12:37:47.367Z,36
2019-02-22T12:38:57.531Z,40
2019-02-22T12:40:07.630Z,40
2019-02-22T12:41:17.404Z,40
2019-02-22T12:42:27.249Z,36
2019-02-22T12:43:37.074Z,36
2019-02-22T12:44:46.697Z,40
2019-02-22T12:45:56.521Z,40
2019-02-22T12:47:06.600Z,40
2019-02-22T12:48:16.166Z,40
2019-02-22T12:49:25.721Z,44
2019-02-22T12:50:35.557Z,44
2019-02-22T12:51:44.848Z,48
2019-02-22T12:52:54.131Z,48
2019-02-22T12:54:03.684Z,44
2019-02-22T12:55:12.751Z,44
2019-02-22T12:58:13.221Z,40
2019-02-22T12:59:23.054Z,40
2019-02-22T13:00:33.095Z,40
2019-02-22T13:01:42.645Z,28
2019-02-22T13:03:03.874Z,24
2019-02-22T13:04:13.436Z,16
2019-02-22T13:05:22.750Z,12
2019-02-22T13:06:32.074Z,8
2019-02-22T13:07:41.647Z,12
2019-02-22T13:08:51.080Z,12
2019-02-22T13:10:00.231Z,24
2019-02-22T13:11:09.832Z,32
2019-02-22T13:12:22.167Z,12
2019-02-22T13:13:31.718Z,12
2019-02-22T13:14:41.051Z,16
2019-02-22T13:15:50.860Z,24
2019-02-22T13:17:00.631Z,36
2019-02-22T13:18:10.024Z,40
2019-02-22T13:19:19.323Z,56
2019-02-22T13:20:28.916Z,56
2019-02-22T13:21:38.506Z,56
2019-02-22T13:22:48.373Z,52
2019-02-22T13:23:59.839Z,56
2019-02-22T13:25:09.418Z,44
2019-02-22T13:26:20.271Z,32
2019-02-22T13:27:29.605Z,40
2019-02-22T13:28:38.967Z,64
2019-02-22T13:29:48.285Z,68
2019-02-22T13:30:57.857Z,68
2019-02-22T13:32:07.415Z,68
2019-02-22T13:33:16.993Z,64
2019-02-22T13:34:26.303Z,68
2019-02-22T13:35:35.904Z,76
2019-02-22T13:36:45.219Z,64
2019-02-22T13:37:54.522Z,72
2019-02-22T13:39:03.873Z,80
2019-02-22T13:40:12.776Z,76
2019-02-22T13:41:22.381Z,80
2019-02-22T13:42:32.020Z,84
2019-02-22T13:43:41.381Z,80
2019-02-22T13:44:50.883Z,76
2019-02-22T13:46:00.929Z,68
2019-02-22T13:47:10.180Z,76
2019-02-22T13:48:19.667Z,48
2019-02-22T13:49:29.433Z,28
2019-02-22T13:50:38.552Z,28
2019-02-22T13:51:48.194Z,28
2019-02-22T13:52:57.744Z,24
2019-02-22T13:54:07.315Z,20
2019-02-22T13:55:17.243Z,44
2019-02-22T13:56:36.724Z,24
2019-02-22T13:57:45.769Z,24
2019-02-22T13:58:55.117Z,40
2019-02-22T14:00:04.591Z,16
2019-02-22T14:01:14.276Z,20
2019-02-22T14:02:23.586Z,16
2019-02-22T14:03:32.909Z,24
2019-02-22T14:04:42.609Z,56
2019-02-22T14:05:52.081Z,36
2019-02-22T14:07:01.395Z,60
2019-02-22T14:08:11.507Z,12
2019-02-22T14:09:21.313Z,12
2019-02-22T14:10:30.851Z,12
2019-02-22T14:11:40.385Z,12
2019-02-22T14:12:49.429Z,12
2019-02-22T14:13:59.452Z,12
2019-02-22T14:15:09.279Z,12
2019-02-22T14:16:18.816Z,12
2019-02-22T14:17:28.910Z,12
2019-02-22T14:18:38.549Z,12
2019-02-22T14:19:48.154Z,12
2019-02-22T14:20:57.483Z,12
2019-02-22T14:22:06.723Z,16
2019-02-22T14:23:16.274Z,12
2019-02-22T14:24:25.572Z,16
2019-02-22T14:25:35.106Z,16
2019-02-22T14:26:44.904Z,12
2019-02-22T14:27:54.756Z,16
2019-02-22T14:29:04.380Z,20
2019-02-22T14:30:13.746Z,20
2019-02-22T14:31:23.644Z,20
2019-02-22T14:32:33.148Z,20
2019-02-22T14:33:42.329Z,24
2019-02-22T14:34:52.042Z,20
2019-02-22T14:36:01.184Z,16
2019-02-22T14:37:10.685Z,20
2019-02-22T14:38:20.417Z,20
2019-02-22T14:39:30.291Z,16
2019-02-22T14:40:40.107Z,16
2019-02-22T14:41:49.714Z,12
2019-02-22T14:42:58.775Z,16
2019-02-22T14:44:08.388Z,12
2019-02-22T14:45:17.717Z,12
2019-02-22T14:46:32.491Z,12
2019-02-22T14:47:42.124Z,12
2019-02-22T14:48:51.532Z,12
2019-02-22T14:50:00.653Z,16
2019-02-22T14:51:10.267Z,12
2019-02-22T14:52:22.402Z,8
2019-02-22T14:53:31.965Z,12
2019-02-22T14:54:41.557Z,16
2019-02-22T14:55:50.896Z,12
2019-02-22T14:56:59.971Z,16
2019-02-22T14:58:09.312Z,16
2019-02-22T14:59:18.134Z,12
2019-02-22T15:00:27.975Z,12
2019-02-22T15:01:40.363Z,12
2019-02-22T15:02:49.991Z,12
2019-02-22T15:03:59.547Z,12
2019-02-22T15:05:11.347Z,12
2019-02-22T15:06:20.628Z,12
2019-02-22T15:07:30.452Z,12
2019-02-22T15:08:40.025Z,12
2019-02-22T15:09:49.295Z,12
2019-02-22T15:10:58.843Z,12
2019-02-22T15:12:08.178Z,12
2019-02-22T15:13:23.540Z,8
2019-02-22T15:14:32.954Z,12
2019-02-22T15:15:42.013Z,12
2019-02-22T15:16:51.702Z,12
2019-02-22T15:18:01.040Z,12
2019-02-22T15:19:10.525Z,12
2019-02-22T15:20:20.285Z,12
2019-02-22T15:21:30.061Z,12
2019-02-22T15:22:41.727Z,12
2019-02-22T15:23:50.745Z,8
2019-02-22T15:25:00.896Z,8
2019-02-22T15:26:10.459Z,8
2019-02-22T15:27:20.208Z,8
2019-02-22T15:28:30.828Z,8
2019-02-22T15:29:40.389Z,8
2019-02-22T15:30:52.731Z,8
2019-02-22T15:32:02.002Z,8
2019-02-22T15:33:12.657Z,8
2019-02-22T15:34:22.465Z,8
2019-02-22T15:35:32.233Z,4
2019-02-22T15:36:41.591Z,8
2019-02-22T15:37:51.123Z,8
2019-02-22T15:39:00.388Z,8
2019-02-22T15:40:10.222Z,4
2019-02-22T15:41:20.117Z,4
2019-02-22T15:42:29.471Z,4
2019-02-22T15:43:38.886Z,4
2019-02-22T15:44:48.204Z,4
2019-02-22T15:45:57.751Z,4
2019-02-22T15:47:19.516Z,4
2019-02-22T15:48:28.608Z,4
2019-02-22T15:49:38.296Z,4
2019-02-22T15:50:47.336Z,4
2019-02-22T15:51:56.614Z,4
2019-02-22T15:53:05.898Z,4
2019-02-22T15:54:15.144Z,4
2019-02-22T15:55:24.148Z,8
2019-02-22T15:56:32.997Z,8
2019-02-22T15:57:42.293Z,8
2019-02-22T15:58:51.144Z,4
2019-02-22T16:00:00.450Z,4
2019-02-22T16:01:10.300Z,4
2019-02-22T16:02:21.979Z,4
2019-02-22T16:03:31.253Z,4
2019-02-22T16:04:40.520Z,4
2019-02-22T16:05:52.123Z,4
2019-02-22T16:07:01.405Z,4
2019-02-22T16:08:12.585Z,4
2019-02-22T16:09:22.135Z,4
2019-02-22T16:10:31.563Z,4
2019-02-22T16:11:41.495Z,4
2019-02-22T16:12:51.130Z,4
2019-02-22T16:14:00.713Z,4
2019-02-22T16:15:10.954Z,4
2019-02-22T16:16:30.261Z,4
2019-02-22T16:17:40.263Z,4
2019-02-22T16:18:50.187Z,4
2019-02-22T16:19:59.725Z,4
2019-02-22T16:21:09.460Z,4
2019-02-22T16:22:18.742Z,4
2019-02-22T16:23:28.339Z,4
2019-02-22T16:24:37.764Z,4
2019-02-22T16:25:47.968Z,4
2019-02-22T16:26:57.939Z,4
2019-02-22T16:28:07.726Z,4
2019-02-22T16:29:17.529Z,4
2019-02-22T16:30:26.866Z,4
2019-02-22T16:31:36.792Z,4
2019-02-22T16:32:47.086Z,4
2019-02-22T16:33:56.676Z,4
2019-02-22T16:35:05.969Z,4
2019-02-22T16:36:15.387Z,4
2019-02-22T16:37:24.754Z,0
2019-02-22T16:38:34.130Z,0
2019-02-22T16:39:44.364Z,0
2019-02-22T16:40:53.992Z,4
2019-02-22T16:42:03.850Z,4
2019-02-22T16:43:13.466Z,4
2019-02-22T16:44:22.971Z,4
2019-02-22T16:45:32.510Z,4
2019-02-22T16:46:42.491Z,0
2019-02-22T16:47:51.741Z,0
2019-02-22T16:49:01.074Z,0
2019-02-22T16:50:11.000Z,0
2019-02-22T16:51:20.318Z,0
2019-02-22T16:52:30.578Z,0
2019-02-22T16:53:40.245Z,0
2019-02-22T16:54:50.471Z,0
2019-02-22T16:55:59.509Z,0
2019-02-22T16:57:09.449Z,0
2019-02-22T16:58:19.181Z,0
2019-02-22T16:59:28.238Z,0
2019-02-22T17:00:37.309Z,0
2019-02-22T17:01:46.649Z,0
2019-02-22T17:02:55.641Z,0
2019-02-22T17:04:05.209Z,0
2019-02-22T17:05:15.097Z,0
2019-02-22T17:06:24.658Z,0